Time;durP1;ratioP1;P1;durP2;ratioP2;P2;SDS_P1;SDS_P2;PMS_P1;PMS_P2;Temp;Humidity;BMP_temperature;BMP_pressure;BME280_temperature;BME280_humidity;BME280_pressure;Samples;Min_cycle;Max_cycle;Signal;HPM_P1;HPM_P2
2022/05/16 00:02:16;;;;;;;4.27;3.30;;;15.90;1.00;;;;;;5107720;28;20488;-59
2022/05/16 00:04:44;;;;;;;4.77;2.77;;;15.80;1.00;;;;;;5108063;28;20642;-58
2022/05/16 00:07:11;;;;;;;5.13;3.10;;;15.80;1.00;;;;;;5109903;28;20447;-57
2022/05/16 00:09:36;;;;;;;5.20;2.60;;;15.70;1.00;;;;;;5106904;28;20976;-57
2022/05/16 00:12:03;;;;;;;4.20;2.80;;;15.80;1.00;;;;;;5108531;28;20455;-56
2022/05/16 00:14:29;;;;;;;7.37;3.60;;;15.80;1.00;;;;;;5095747;28;20216;-58
2022/05/16 00:16:55;;;;;;;4.57;3.20;;;15.70;1.00;;;;;;5106134;28;20447;-56
2022/05/16 00:19:20;;;;;;;5.13;2.90;;;15.60;1.00;;;;;;5100763;28;20939;-58
2022/05/16 00:21:46;;;;;;;4.17;3.40;;;15.60;1.00;;;;;;5104965;28;20252;-57
2022/05/16 00:24:12;;;;;;;3.63;3.30;;;15.60;1.00;;;;;;5105301;28;20190;-59
2022/05/16 00:26:39;;;;;;;4.27;3.03;;;15.50;1.00;;;;;;5100483;28;20182;-58
2022/05/16 00:29:05;;;;;;;3.63;3.03;;;15.40;1.00;;;;;;5102043;28;20200;-58
2022/05/16 00:31:32;;;;;;;7.70;4.00;;;15.40;1.00;;;;;;5099396;28;20443;-57
2022/05/16 00:33:58;;;;;;;19.20;3.70;;;15.30;1.00;;;;;;5104375;28;20471;-57
2022/05/16 00:36:24;;;;;;;4.80;2.90;;;15.30;1.00;;;;;;5100338;28;20440;-58
2022/05/16 00:38:50;;;;;;;6.50;3.40;;;15.30;1.00;;;;;;5096530;28;20178;-58
2022/05/16 00:41:16;;;;;;;5.53;3.17;;;15.30;1.00;;;;;;5098183;28;20451;-58
2022/05/16 00:43:58;;;;;;;6.67;3.07;;;15.20;1.00;;;;;;5105303;28;20446;-58
2022/05/16 00:46:27;;;;;;;6.63;2.97;;;15.10;1.00;;;;;;5099592;28;20477;-57
2022/05/16 00:48:53;;;;;;;5.73;3.00;;;15.10;1.00;;;;;;5101155;28;20453;-58
2022/05/16 00:51:34;;;;;;;4.57;2.97;;;15.10;1.00;;;;;;5104652;28;20463;-58
2022/05/16 00:54:14;;;;;;;3.63;3.17;;;15.10;1.00;;;;;;5098757;28;20720;-57
2022/05/16 00:56:40;;;;;;;3.83;2.83;;;15.10;1.00;;;;;;5104074;28;20451;-58
2022/05/16 00:59:07;;;;;;;5.17;3.40;;;15.00;1.00;;;;;;5107394;28;21322;-58
2022/05/16 01:07:03;;;;;;;4.60;3.43;;;14.90;1.00;;;;;;5101976;28;21001;-58
2022/05/16 01:09:30;;;;;;;4.87;3.60;;;14.90;1.00;;;;;;5081677;28;20460;-57
2022/05/16 01:11:56;;;;;;;4.80;2.93;;;14.90;1.00;;;;;;5106686;28;20456;-58
2022/05/16 01:14:38;;;;;;;7.70;2.93;;;14.70;1.00;;;;;;5109277;28;20475;-59
2022/05/16 01:17:03;;;;;;;4.40;3.33;;;14.80;1.00;;;;;;5100290;28;20443;-57
2022/05/16 01:19:29;;;;;;;4.57;2.80;;;14.70;1.00;;;;;;5108938;28;20439;-58
2022/05/16 01:21:59;;;;;;;3.50;2.70;;;14.60;1.00;;;;;;5110781;28;20326;-58
2022/05/16 01:24:25;;;;;;;4.13;2.93;;;14.60;1.00;;;;;;5110247;28;20221;-57
2022/05/16 01:26:52;;;;;;;5.73;3.90;;;14.60;1.00;;;;;;5099773;28;20534;-57
2022/05/16 01:29:19;;;;;;;5.10;2.90;;;14.60;1.00;;;;;;5106596;28;21011;-58
2022/05/16 01:31:45;;;;;;;4.60;3.10;;;14.60;1.00;;;;;;5105261;28;20452;-57
2022/05/16 01:34:11;;;;;;;3.37;2.63;;;14.50;1.00;;;;;;5101278;28;20475;-58
2022/05/16 01:36:38;;;;;;;3.67;2.93;;;14.40;1.00;;;;;;5106096;28;20678;-57
2022/05/16 01:39:04;;;;;;;3.60;2.60;;;14.40;1.00;;;;;;5105039;28;20577;-57
2022/05/16 01:41:29;;;;;;;4.10;3.30;;;14.30;1.00;;;;;;5102944;28;20474;-58
2022/05/16 01:43:57;;;;;;;4.80;3.63;;;14.30;1.00;;;;;;5101486;28;20202;-57
2022/05/16 01:46:37;;;;;;;4.40;3.27;;;14.30;1.00;;;;;;5102378;28;20293;-58
2022/05/16 01:49:04;;;;;;;3.20;2.70;;;14.30;1.00;;;;;;5102228;28;20995;-59
2022/05/16 01:51:30;;;;;;;4.87;3.17;;;14.30;1.00;;;;;;5107366;28;20459;-57
2022/05/16 01:53:56;;;;;;;4.57;3.47;;;14.40;1.00;;;;;;5096716;28;20541;-57
2022/05/16 01:56:22;;;;;;;8.90;3.40;;;14.30;1.00;;;;;;5101022;28;20190;-57
2022/05/16 01:58:49;;;;;;;3.60;3.07;;;14.30;1.00;;;;;;5093881;28;20440;-57
2022/05/16 02:01:15;;;;;;;4.90;3.37;;;14.30;1.00;;;;;;5107624;28;20893;-57
2022/05/16 02:03:43;;;;;;;4.90;3.73;;;14.20;1.00;;;;;;5111251;28;20443;-57
2022/05/16 02:06:09;;;;;;;4.67;3.37;;;14.20;1.00;;;;;;5102363;28;20448;-58
2022/05/16 02:08:35;;;;;;;4.67;3.70;;;14.10;1.00;;;;;;5099117;28;20450;-57
2022/05/16 02:13:34;;;;;;;6.90;3.60;;;14.00;1.00;;;;;;5101574;28;20479;-57
2022/05/16 02:16:00;;;;;;;4.10;3.70;;;14.00;1.00;;;;;;5104964;28;20835;-57
2022/05/16 02:18:26;;;;;;;3.37;3.17;;;13.90;1.00;;;;;;5103690;28;20447;-57
2022/05/16 02:24:38;;;;;;;7.10;4.20;;;13.80;1.00;;;;;;5103110;28;20183;-58
2022/05/16 02:26:22;;;;;;;9.43;3.50;;;13.90;1.00;;;;;;5102573;28;20447;-57
2022/05/16 02:28:48;;;;;;;6.00;3.57;;;13.90;1.00;;;;;;5101941;28;20539;-57
2022/05/16 02:31:13;;;;;;;3.20;2.90;;;13.80;1.00;;;;;;5102843;28;20803;-57
2022/05/16 02:33:39;;;;;;;3.70;3.37;;;13.70;1.00;;;;;;5102384;28;20210;-57
2022/05/16 02:38:33;;;;;;;3.77;3.37;;;13.70;1.00;;;;;;5102748;28;20636;-57
2022/05/16 02:40:58;;;;;;;5.27;3.90;;;13.70;1.00;;;;;;5101678;28;20448;-57
2022/05/16 02:43:24;;;;;;;4.80;3.60;;;13.70;1.00;;;;;;5098030;28;20495;-58
2022/05/16 02:45:50;;;;;;;5.30;3.30;;;;;;;;;;5103124;28;20274;-58
2022/05/16 02:48:16;;;;;;;4.53;3.00;;;13.60;1.00;;;;;;5102095;28;20456;-57
2022/05/16 02:50:41;;;;;;;6.40;3.40;;;13.60;1.00;;;;;;5102687;28;20451;-58
2022/05/16 02:53:07;;;;;;;4.83;3.70;;;13.60;1.00;;;;;;5084918;28;20716;-57
2022/05/16 02:55:33;;;;;;;4.90;3.77;;;13.60;1.00;;;;;;5098214;28;20190;-57
2022/05/16 02:57:59;;;;;;;4.77;3.30;;;;;;;;;;5102841;28;20217;-57
2022/05/16 03:00:24;;;;;;;4.20;3.70;;;13.60;1.00;;;;;;5103966;28;20220;-57
2022/05/16 03:02:50;;;;;;;4.70;3.57;;;13.50;1.00;;;;;;5102024;28;21067;-57
2022/05/16 03:05:16;;;;;;;5.23;3.63;;;13.50;1.00;;;;;;5103179;28;20202;-58
2022/05/16 03:07:42;;;;;;;8.90;3.87;;;13.50;1.00;;;;;;5103712;28;20315;-57
2022/05/16 03:10:08;;;;;;;5.43;4.10;;;13.50;1.00;;;;;;5098900;28;20459;-58
2022/05/16 03:12:34;;;;;;;4.40;3.40;;;13.50;1.00;;;;;;5100530;28;20486;-56
2022/05/16 03:15:00;;;;;;;6.10;4.00;;;13.40;1.00;;;;;;5101698;28;21171;-57
2022/05/16 03:17:26;;;;;;;3.73;3.13;;;13.40;1.00;;;;;;5106870;28;20201;-57
2022/05/16 03:19:51;;;;;;;5.37;4.10;;;13.40;1.00;;;;;;5105521;28;20471;-56
2022/05/16 03:22:17;;;;;;;4.53;3.03;;;;;;;;;;5097581;28;20297;-57
2022/05/16 03:24:43;;;;;;;17.63;4.33;;;15.90;1.00;;;;;;5101965;28;20191;-57
2022/05/16 03:27:10;;;;;;;7.13;4.20;;;13.30;1.00;;;;;;5083760;28;20448;-58
2022/05/16 03:29:36;;;;;;;6.73;4.27;;;13.30;1.00;;;;;;5097913;28;20664;-57
2022/05/16 03:32:02;;;;;;;4.40;4.00;;;13.30;1.00;;;;;;5106550;28;20451;-58
2022/05/16 03:34:28;;;;;;;4.30;3.60;;;13.30;1.00;;;;;;5072479;28;20214;-57
2022/05/16 03:36:53;;;;;;;4.80;3.40;;;13.30;1.00;;;;;;5095310;28;20452;-57
2022/05/16 03:42:03;;;;;;;6.40;3.43;;;13.40;1.00;;;;;;5105736;28;20208;-58
2022/05/16 03:44:29;;;;;;;4.33;3.93;;;13.30;1.00;;;;;;5101708;28;20476;-58
2022/05/16 03:46:54;;;;;;;4.93;3.40;;;13.20;1.00;;;;;;5099932;28;20425;-58
2022/05/16 03:49:20;;;;;;;4.43;3.53;;;14.00;1.00;;;;;;5096445;28;20243;-57
2022/05/16 03:51:46;;;;;;;5.00;4.00;;;;;;;;;;5094777;28;20566;-57
2022/05/16 03:54:11;;;;;;;4.13;3.73;;;13.30;1.00;;;;;;5104606;28;20198;-58
2022/05/16 03:56:37;;;;;;;6.10;4.83;;;13.40;1.00;;;;;;5097224;28;20455;-57
2022/05/16 03:59:03;;;;;;;7.93;4.20;;;13.40;1.00;;;;;;5092801;28;20190;-57
2022/05/16 04:01:29;;;;;;;6.23;4.10;;;13.30;1.00;;;;;;5106797;28;20182;-57
2022/05/16 04:03:55;;;;;;;5.60;3.83;;;13.30;1.00;;;;;;5092206;28;20535;-58
2022/05/16 04:06:20;;;;;;;5.83;3.83;;;13.40;1.00;;;;;;5097879;28;20174;-57
2022/05/16 04:08:46;;;;;;;4.37;3.97;;;13.50;1.00;;;;;;5105033;28;20211;-59
2022/05/16 04:11:15;;;;;;;5.00;3.73;;;13.60;1.00;;;;;;5106505;28;20548;-59
2022/05/16 04:13:41;;;;;;;6.53;4.07;;;13.70;1.00;;;;;;5101577;28;20210;-60
2022/05/16 04:16:09;;;;;;;7.10;4.83;;;13.80;1.00;;;;;;5102045;28;20445;-60
2022/05/16 04:18:36;;;;;;;4.77;4.03;;;;;;;;;;5094844;28;20448;-59
2022/05/16 04:21:07;;;;;;;6.40;4.37;;;13.80;1.00;;;;;;5100617;28;20918;-59
2022/05/16 04:23:32;;;;;;;4.60;3.80;;;13.90;1.00;;;;;;5093636;28;20452;-59
2022/05/16 04:25:58;;;;;;;5.23;4.17;;;13.90;1.00;;;;;;5104285;28;20447;-59
2022/05/16 04:28:24;;;;;;;6.13;4.53;;;13.90;1.00;;;;;;5099411;28;20205;-60
2022/05/16 04:30:49;;;;;;;6.03;4.10;;;14.10;1.00;;;;;;5096976;28;20194;-60
2022/05/16 04:33:16;;;;;;;6.70;3.17;;;14.00;1.00;;;;;;5099381;28;20236;-59
2022/05/16 04:35:42;;;;;;;6.20;4.20;;;14.20;1.00;;;;;;5097318;28;20186;-60
2022/05/16 04:38:07;;;;;;;6.53;4.10;;;14.20;1.00;;;;;;5105762;28;20473;-60
2022/05/16 04:40:34;;;;;;;6.17;5.43;;;14.40;1.00;;;;;;5103841;28;20268;-56
2022/05/16 04:43:00;;;;;;;6.83;4.20;;;14.50;1.00;;;;;;5100713;28;20942;-55
2022/05/16 04:45:28;;;;;;;6.33;4.50;;;14.50;1.00;;;;;;5066422;28;1033480;-56
2022/05/16 04:47:56;;;;;;;5.63;4.10;;;14.50;1.00;;;;;;5104276;28;20778;-56
2022/05/16 04:50:28;;;;;;;4.73;4.20;;;14.60;1.00;;;;;;5104399;28;20452;-57
2022/05/16 04:52:54;;;;;;;5.10;3.90;;;14.70;1.00;;;;;;5104771;28;20463;-55
2022/05/16 04:55:21;;;;;;;6.20;4.10;;;14.70;1.00;;;;;;5102903;28;20525;-56
2022/05/16 04:57:46;;;;;;;9.73;4.50;;;14.70;1.00;;;;;;5107446;28;20444;-56
2022/05/16 05:00:14;;;;;;;6.10;4.33;;;14.90;1.00;;;;;;5085158;28;20791;-56
2022/05/16 05:02:40;;;;;;;6.73;4.33;;;14.80;1.00;;;;;;5098748;28;20175;-56
2022/05/16 05:05:07;;;;;;;5.70;3.60;;;14.90;1.00;;;;;;5099353;28;20561;-56
2022/05/16 05:07:32;;;;;;;6.40;3.93;;;15.00;1.00;;;;;;5094959;28;20857;-56
2022/05/16 05:15:26;;;;;;;8.20;4.57;;;15.50;1.00;;;;;;5101547;28;20534;-57
2022/05/16 05:17:52;;;;;;;6.83;5.20;;;15.60;1.00;;;;;;5105547;28;20594;-55
2022/05/16 05:20:18;;;;;;;8.00;4.33;;;15.70;1.00;;;;;;5107713;28;20272;-56
2022/05/16 05:22:46;;;;;;;6.30;4.50;;;15.80;1.00;;;;;;5088832;28;20190;-56
2022/05/16 05:25:15;;;;;;;7.20;4.43;;;16.00;1.00;;;;;;5099599;28;20767;-56
2022/05/16 05:27:42;;;;;;;8.07;4.50;;;16.10;1.00;;;;;;5105824;28;20475;-57
2022/05/16 05:30:10;;;;;;;10.53;5.50;;;16.20;1.00;;;;;;5106276;28;20468;-57
2022/05/16 05:32:36;;;;;;;7.80;4.53;;;16.20;1.00;;;;;;5104445;28;20537;-56
2022/05/16 05:35:04;;;;;;;6.57;4.27;;;16.30;1.00;;;;;;5103797;28;20480;-56
2022/05/16 05:37:29;;;;;;;6.53;4.47;;;16.50;1.00;;;;;;5105744;28;20504;-56
2022/05/16 05:39:58;;;;;;;6.23;4.40;;;16.60;1.00;;;;;;5112467;28;20455;-56
2022/05/16 05:42:24;;;;;;;7.90;4.30;;;16.70;1.00;;;;;;5108610;28;20238;-56
2022/05/16 05:44:50;;;;;;;8.07;4.60;;;16.70;1.00;;;;;;5093929;28;20948;-56
2022/05/16 05:47:15;;;;;;;21.50;6.17;;;16.70;1.00;;;;;;5100221;28;20448;-55
2022/05/16 05:49:41;;;;;;;11.20;5.33;;;16.80;1.00;;;;;;5102881;28;20187;-56
2022/05/16 05:52:06;;;;;;;13.47;5.17;;;17.00;1.00;;;;;;5093116;28;20191;-56
2022/05/16 05:54:32;;;;;;;8.83;5.00;;;17.20;1.00;;;;;;5104350;28;20240;-57
2022/05/16 05:56:57;;;;;;;6.90;4.30;;;17.60;1.00;;;;;;5110184;28;20189;-56
2022/05/16 05:59:24;;;;;;;9.80;5.07;;;17.60;1.00;;;;;;5106943;28;20577;-56
2022/05/16 06:01:50;;;;;;;10.20;5.10;;;17.70;1.00;;;;;;5104726;28;20190;-56
2022/05/16 06:04:15;;;;;;;7.63;4.10;;;17.80;1.00;;;;;;5105516;28;20810;-57
2022/05/16 06:06:42;;;;;;;7.20;4.50;;;17.90;1.00;;;;;;5095785;28;20505;-58
2022/05/16 06:09:08;;;;;;;5.00;4.50;;;18.00;1.00;;;;;;5096095;28;20230;-56
2022/05/16 06:11:33;;;;;;;6.00;4.53;;;18.00;1.00;;;;;;5112346;28;20526;-57
2022/05/16 06:13:59;;;;;;;5.17;4.17;;;18.00;1.00;;;;;;5104590;28;20206;-56
2022/05/16 06:16:24;;;;;;;9.33;4.50;;;18.20;1.00;;;;;;5093193;28;20167;-58
2022/05/16 06:18:50;;;;;;;10.73;4.93;;;18.40;1.00;;;;;;5098138;28;20190;-57
2022/05/16 06:21:16;;;;;;;7.60;4.17;;;18.50;1.00;;;;;;5098125;28;20181;-57
2022/05/16 06:23:41;;;;;;;5.53;3.40;;;18.60;1.00;;;;;;5098674;28;20192;-57
2022/05/16 06:26:07;;;;;;;6.50;4.00;;;18.70;1.00;;;;;;5093499;28;20273;-56
2022/05/16 06:28:37;;;;;;;5.70;4.87;;;18.70;1.00;;;;;;5102311;28;20210;-56
2022/05/16 06:31:10;;;;;;;11.57;4.27;;;18.90;1.00;;;;;;5094721;28;20194;-57
2022/05/16 06:33:36;;;;;;;6.10;4.60;;;19.10;1.00;;;;;;5111313;28;21258;-57
2022/05/16 06:36:07;;;;;;;4.93;3.87;;;19.40;1.00;;;;;;5110580;28;20444;-57
2022/05/16 06:38:35;;;;;;;5.03;4.40;;;18.70;1.00;;;;;;5096462;28;20440;-57
2022/05/16 06:41:01;;;;;;;4.67;3.60;;;19.50;1.00;;;;;;5101433;28;20443;-59
2022/05/16 06:43:28;;;;;;;5.27;3.50;;;19.60;1.00;;;;;;5093987;28;20454;-58
2022/05/16 06:45:54;;;;;;;5.77;3.60;;;19.80;1.00;;;;;;5095780;28;20233;-57
2022/05/16 06:48:20;;;;;;;14.90;4.10;;;19.90;1.00;;;;;;5093506;28;20419;-57
2022/05/16 06:50:48;;;;;;;12.30;4.17;;;20.00;1.00;;;;;;5094583;28;20205;-57
2022/05/16 06:53:23;;;;;;;14.03;4.77;;;20.10;1.00;;;;;;5107002;28;20212;-56
2022/05/16 06:55:49;;;;;;;4.80;4.23;;;20.30;1.00;;;;;;5104050;28;20460;-58
2022/05/16 06:58:14;;;;;;;6.10;4.20;;;20.40;1.00;;;;;;5093247;28;20505;-58
2022/05/16 07:00:40;;;;;;;11.97;3.90;;;20.50;1.00;;;;;;5077950;28;20252;-58
2022/05/16 07:03:06;;;;;;;4.07;3.47;;;20.70;1.00;;;;;;5098471;28;20560;-56
2022/05/16 07:05:33;;;;;;;6.00;4.03;;;21.00;1.00;;;;;;5107811;28;20198;-57
2022/05/16 07:07:59;;;;;;;8.07;4.20;;;21.30;1.00;;;;;;5096239;28;20443;-57
2022/05/16 07:10:25;;;;;;;6.87;3.43;;;21.40;1.00;;;;;;5091716;28;20476;-57
2022/05/16 07:12:51;;;;;;;5.57;3.60;;;21.50;1.00;;;;;;5092149;28;20265;-57
2022/05/16 07:15:17;;;;;;;11.37;3.80;;;21.60;1.00;;;;;;5111322;28;20822;-58
2022/05/16 07:17:43;;;;;;;5.97;3.33;;;23.20;1.00;;;;;;5091230;28;20429;-57
2022/05/16 07:20:10;;;;;;;7.07;3.13;;;22.10;1.00;;;;;;5092598;28;20443;-56
2022/05/16 07:22:39;;;;;;;7.40;3.60;;;22.30;1.00;;;;;;5092183;28;20592;-58
2022/05/16 07:25:05;;;;;;;3.70;3.07;;;22.50;1.00;;;;;;5090862;28;20848;-58
2022/05/16 07:30:14;;;;;;;7.83;3.70;;;22.80;1.00;;;;;;5111320;28;20451;-56
2022/05/16 07:32:44;;;;;;;4.13;3.23;;;22.90;1.00;;;;;;5110578;28;20432;-57
2022/05/16 07:35:17;;;;;;;4.10;2.80;;;22.90;1.00;;;;;;5094567;28;20536;-56
2022/05/16 07:37:44;;;;;;;5.03;3.60;;;22.80;1.00;;;;;;5092685;28;20949;-57
2022/05/16 07:40:12;;;;;;;11.97;3.60;;;22.80;1.00;;;;;;5090730;28;20433;-56
2022/05/16 07:42:38;;;;;;;4.73;3.40;;;;;;;;;;5090778;28;20463;-57
2022/05/16 07:45:06;;;;;;;6.70;3.13;;;23.10;1.00;;;;;;5105958;28;20558;-56
2022/05/16 07:47:32;;;;;;;9.40;3.47;;;23.20;1.00;;;;;;5110846;28;20436;-57
2022/05/16 07:49:59;;;;;;;9.23;3.20;;;23.40;1.00;;;;;;5110837;28;20420;-57
2022/05/16 07:52:25;;;;;;;6.40;4.50;;;23.40;1.00;;;;;;5096338;28;20182;-58
2022/05/16 07:54:51;;;;;;;5.23;2.80;;;23.70;1.00;;;;;;5102110;28;20468;-57
2022/05/16 07:57:17;;;;;;;9.17;3.63;;;23.90;1.00;;;;;;5090273;28;20472;-57
2022/05/16 07:59:43;;;;;;;10.70;3.90;;;24.10;1.00;;;;;;5090486;28;20441;-56
2022/05/16 08:02:09;;;;;;;6.23;3.30;;;24.10;1.00;;;;;;5090518;28;20432;-56
2022/05/16 08:04:35;;;;;;;9.73;3.37;;;24.30;1.00;;;;;;5090289;28;20788;-57
2022/05/16 08:07:04;;;;;;;7.67;3.40;;;24.30;1.00;;;;;;5091833;28;20277;-57
2022/05/16 08:12:33;;;;;;;4.33;3.30;;;24.30;1.00;;;;;;5109974;28;20466;-57
2022/05/16 08:15:00;;;;;;;6.67;3.10;;;24.30;1.00;;;;;;5109785;28;20879;-57
2022/05/16 08:17:26;;;;;;;6.90;3.10;;;24.40;1.00;;;;;;5096767;28;20440;-58
2022/05/16 08:19:52;;;;;;;4.20;2.80;;;24.40;1.00;;;;;;5090048;28;20437;-58
2022/05/16 08:22:17;;;;;;;4.50;3.50;;;24.30;1.00;;;;;;5092071;28;20443;-57
2022/05/16 08:24:44;;;;;;;16.20;3.70;;;24.40;1.00;;;;;;5103507;28;20204;-57
2022/05/16 08:27:10;;;;;;;8.80;3.13;;;24.60;1.00;;;;;;5104543;28;20193;-58
2022/05/16 08:29:35;;;;;;;6.30;3.37;;;24.60;1.00;;;;;;5091235;28;20958;-57
2022/05/16 08:32:03;;;;;;;4.87;3.10;;;24.60;1.00;;;;;;5090001;28;20193;-58
2022/05/16 08:34:29;;;;;;;6.10;3.30;;;24.80;1.00;;;;;;5073513;28;20225;-57
2022/05/16 08:39:52;;;;;;;6.43;2.77;;;24.90;1.00;;;;;;5061645;28;21027;-57
2022/05/16 08:42:45;;;;;;;5.93;3.30;;;24.90;1.00;;;;;;5092727;28;21118;-57
2022/05/16 08:45:29;;;;;;;5.90;3.13;;;25.10;1.00;;;;;;5109559;28;20528;-57
2022/05/16 08:48:18;;;;;;;11.03;3.57;;;25.20;1.00;;;;;;5110047;28;20443;-58
2022/05/16 08:50:59;;;;;;;7.67;3.07;;;25.40;1.00;;;;;;5108843;28;20443;-56
2022/05/16 08:53:31;;;;;;;6.40;3.27;;;25.50;1.00;;;;;;5110163;28;20459;-57
2022/05/16 08:56:06;;;;;;;6.83;3.20;;;25.90;1.00;;;;;;5107415;28;20451;-57
2022/05/16 08:58:41;;;;;;;5.20;2.80;;;25.90;1.00;;;;;;5110256;28;20516;-58
2022/05/16 09:01:24;;;;;;;8.20;3.70;;;25.90;1.00;;;;;;5105278;28;20961;-57
2022/05/16 09:04:18;;;;;;;6.13;2.90;;;26.00;1.00;;;;;;5110113;28;20456;-56
2022/05/16 09:06:56;;;;;;;4.57;2.90;;;26.00;1.00;;;;;;5107180;28;20460;-57
2022/05/16 09:09:27;;;;;;;6.90;3.40;;;26.00;1.00;;;;;;5105669;28;20472;-58
2022/05/16 09:12:05;;;;;;;6.93;3.07;;;26.00;1.00;;;;;;5093814;28;20441;-57
2022/05/16 09:15:08;;;;;;;7.00;3.23;;;25.80;1.00;;;;;;5113571;28;20553;-57
2022/05/16 09:17:43;;;;;;;7.40;3.20;;;26.00;1.00;;;;;;5099204;28;20435;-61
2022/05/16 09:20:32;;;;;;;6.80;3.20;;;26.10;1.00;;;;;;5093511;28;20428;-58
2022/05/16 09:23:09;;;;;;;4.97;3.10;;;26.10;1.00;;;;;;5112529;28;20495;-58
2022/05/16 09:26:02;;;;;;;5.43;3.23;;;26.00;1.00;;;;;;5113933;28;20424;-56
2022/05/16 09:28:37;;;;;;;7.20;3.10;;;26.30;1.00;;;;;;5113484;28;20902;-57
2022/05/16 09:31:14;;;;;;;4.80;3.47;;;26.50;1.00;;;;;;5113397;28;20916;-58
2022/05/16 09:33:47;;;;;;;5.50;3.10;;;26.40;1.00;;;;;;5098620;28;20839;-58
2022/05/16 09:36:15;;;;;;;9.10;3.80;;;26.40;1.00;;;;;;5111297;28;20517;-57
2022/05/16 09:38:44;;;;;;;5.57;3.33;;;26.40;1.00;;;;;;5113832;28;20428;-57
2022/05/16 09:41:13;;;;;;;5.87;3.20;;;26.40;1.00;;;;;;5113240;28;20954;-58
2022/05/16 09:43:43;;;;;;;8.77;3.80;;;26.40;1.00;;;;;;5113245;28;20443;-58
2022/05/16 09:46:29;;;;;;;7.17;3.60;;;26.50;1.00;;;;;;5101084;28;20459;-57
2022/05/16 09:49:12;;;;;;;5.13;3.20;;;26.50;1.00;;;;;;5093102;28;20444;-57
2022/05/16 09:51:47;;;;;;;7.40;4.30;;;26.50;1.00;;;;;;5102392;28;20439;-57
2022/05/16 09:54:18;;;;;;;6.83;3.77;;;26.40;1.00;;;;;;5098831;28;20818;-57
2022/05/16 09:57:16;;;;;;;6.00;3.30;;;26.50;1.00;;;;;;5074624;28;20452;-57
2022/05/16 09:59:53;;;;;;;4.23;3.00;;;26.60;1.00;;;;;;5080062;28;20536;-57
2022/05/16 10:02:29;;;;;;;7.93;3.40;;;26.80;1.00;;;;;;5077281;28;20436;-58
2022/05/16 10:05:02;;;;;;;5.53;3.13;;;27.00;1.00;;;;;;5093074;28;20463;-58
2022/05/16 10:07:43;;;;;;;7.50;3.00;;;27.20;1.00;;;;;;5104254;28;20441;-57
2022/05/16 10:10:16;;;;;;;5.70;3.20;;;27.50;1.00;;;;;;5095275;28;20532;-58
2022/05/16 10:12:43;;;;;;;4.00;3.20;;;27.60;1.00;;;;;;5112589;28;20440;-57
2022/05/16 10:15:09;;;;;;;6.90;3.07;;;27.70;1.00;;;;;;5112870;28;20432;-57
2022/05/16 10:17:38;;;;;;;6.50;2.90;;;27.90;1.00;;;;;;5112674;28;20447;-58
2022/05/16 10:20:25;;;;;;;4.63;3.47;;;28.00;1.00;;;;;;5112769;28;20431;-56
2022/05/16 10:22:56;;;;;;;6.70;3.77;;;28.00;1.00;;;;;;5100930;28;20494;-58
2022/05/16 10:25:29;;;;;;;5.93;3.40;;;28.20;1.00;;;;;;5094279;28;20447;-58
2022/05/16 10:27:57;;;;;;;5.83;3.33;;;28.30;1.00;;;;;;5096562;28;20946;-58
2022/05/16 10:30:27;;;;;;;5.73;3.43;;;28.30;1.00;;;;;;5092572;28;20552;-58
2022/05/16 10:36:01;;;;;;;6.13;2.97;;;28.00;1.00;;;;;;5099242;28;21023;-58
2022/05/16 10:38:33;;;;;;;7.37;4.00;;;27.70;1.00;;;;;;5110660;28;20800;-57
2022/05/16 10:41:01;;;;;;;6.47;3.30;;;27.70;1.00;;;;;;5111075;28;20952;-58
2022/05/16 10:43:49;;;;;;;4.97;3.40;;;27.80;1.00;;;;;;5102633;28;20916;-57
2022/05/16 10:46:18;;;;;;;7.10;3.50;;;28.00;1.00;;;;;;5111180;28;21067;-58
2022/05/16 10:48:50;;;;;;;7.27;3.50;;;27.90;1.00;;;;;;5112384;28;20459;-58
2022/05/16 10:51:31;;;;;;;7.13;3.60;;;27.70;1.00;;;;;;5112011;28;20436;-58
2022/05/16 10:54:06;;;;;;;6.17;3.43;;;27.80;1.00;;;;;;5112462;28;20812;-59
2022/05/16 10:56:59;;;;;;;4.30;2.90;;;27.70;1.00;;;;;;5104539;28;20496;-58
2022/05/16 10:59:43;;;;;;;6.77;3.23;;;27.70;1.00;;;;;;5098998;28;20452;-56
2022/05/16 11:02:42;;;;;;;4.90;3.60;;;27.80;1.00;;;;;;5112110;28;20430;-58
2022/05/16 11:05:26;;;;;;;6.43;3.50;;;28.10;1.00;;;;;;5094123;28;20511;-57
2022/05/16 11:08:29;;;;;;;5.03;3.50;;;28.20;1.00;;;;;;5091438;28;20443;-57
2022/05/16 11:11:31;;;;;;;7.63;3.23;;;28.40;1.00;;;;;;5109696;28;20436;-56
2022/05/16 11:14:06;;;;;;;9.50;3.53;;;28.20;1.00;;;;;;5107662;28;21014;-56
2022/05/16 11:16:34;;;;;;;5.33;3.60;;;28.30;1.00;;;;;;5111569;28;20431;-57
2022/05/16 11:19:31;;;;;;;9.90;3.80;;;28.50;1.00;;;;;;5111556;28;20434;-57
2022/05/16 11:22:18;;;;;;;4.53;2.97;;;28.90;1.00;;;;;;5092945;28;20740;-57
2022/05/16 11:25:07;;;;;;;5.30;2.80;;;28.80;1.00;;;;;;5090911;28;20506;-59
2022/05/16 11:28:03;;;;;;;4.50;2.67;;;28.80;1.00;;;;;;5109206;28;20435;-58
2022/05/16 11:30:38;;;;;;;5.17;3.07;;;28.80;1.00;;;;;;5110937;28;20424;-57
2022/05/16 11:33:26;;;;;;;5.80;3.20;;;28.70;1.00;;;;;;5110960;28;20458;-60
2022/05/16 11:35:58;;;;;;;5.33;2.90;;;28.80;1.00;;;;;;5091340;28;20418;-57
2022/05/16 11:38:57;;;;;;;7.70;3.20;;;29.10;1.00;;;;;;5109440;28;20410;-59
2022/05/16 11:41:40;;;;;;;7.30;3.40;;;29.20;1.00;;;;;;5091021;28;20486;-58
2022/05/16 11:44:31;;;;;;;4.90;3.07;;;29.80;1.00;;;;;;5107768;28;20455;-58
2022/05/16 11:47:09;;;;;;;6.50;3.87;;;30.10;1.00;;;;;;5091493;28;20499;-58
2022/05/16 11:50:07;;;;;;;5.83;3.20;;;30.00;1.00;;;;;;5093903;28;20424;-57
2022/05/16 11:52:52;;;;;;;4.40;3.00;;;29.70;1.00;;;;;;5092935;28;20423;-58
2022/05/16 12:01:29;;;;;;;3.40;3.10;;;29.50;1.00;;;;;;5106956;28;20493;-58
2022/05/16 12:04:06;;;;;;;8.33;3.30;;;29.30;1.00;;;;;;5101765;28;20489;-59
2022/05/16 12:06:37;;;;;;;6.43;3.20;;;29.50;1.00;;;;;;5090588;28;20943;-58
2022/05/16 12:09:19;;;;;;;5.73;3.43;;;30.00;1.00;;;;;;5108698;28;21082;-57
2022/05/16 12:11:54;;;;;;;7.80;3.70;;;30.30;1.00;;;;;;5104518;28;21113;-57
2022/05/16 12:14:27;;;;;;;5.40;3.93;;;30.60;1.00;;;;;;5092295;28;20470;-58
2022/05/16 12:16:57;;;;;;;9.37;4.20;;;30.60;1.00;;;;;;5109372;28;20435;-57
2022/05/16 12:19:29;;;;;;;8.00;3.10;;;30.40;1.00;;;;;;5104494;28;20436;-58
2022/05/16 12:22:21;;;;;;;4.77;3.30;;;29.80;1.00;;;;;;5090124;28;20517;-58
2022/05/16 12:24:53;;;;;;;10.10;3.93;;;29.70;1.00;;;;;;5061535;28;20428;-59
2022/05/16 12:27:24;;;;;;;8.00;3.73;;;29.90;1.00;;;;;;5102931;28;20437;-57
2022/05/16 12:29:56;;;;;;;3.33;2.97;;;30.20;1.00;;;;;;5091224;28;20418;-59
2022/05/16 12:32:42;;;;;;;3.77;3.17;;;30.30;1.00;;;;;;5110323;28;20447;-57
2022/05/16 12:35:28;;;;;;;7.10;3.30;;;30.10;1.00;;;;;;5101318;28;20463;-58
2022/05/16 12:37:57;;;;;;;3.93;3.53;;;30.30;1.00;;;;;;5092670;28;20444;-57
2022/05/16 12:40:25;;;;;;;5.33;4.50;;;30.30;1.00;;;;;;5110547;28;20872;-58
2022/05/16 12:43:23;;;;;;;6.20;3.23;;;30.20;1.00;;;;;;5110789;28;20556;-57
2022/05/16 12:46:08;;;;;;;9.63;3.10;;;29.80;1.00;;;;;;5095441;28;20456;-56
2022/05/16 12:48:55;;;;;;;4.10;3.23;;;29.40;1.00;;;;;;5109504;28;20960;-57
2022/05/16 12:51:45;;;;;;;3.50;3.17;;;29.20;1.00;;;;;;5114120;28;20398;-59
2022/05/16 12:54:48;;;;;;;3.90;2.93;;;29.40;1.00;;;;;;5112768;28;20430;-60
2022/05/16 12:57:59;;;;;;;4.30;3.07;;;29.30;1.00;;;;;;5093937;28;20424;-58
2022/05/16 13:00:31;;;;;;;4.43;3.47;;;29.50;1.00;;;;;;5054479;28;20542;-57
2022/05/16 13:03:09;;;;;;;5.43;3.27;;;29.40;1.00;;;;;;5094214;28;20519;-57
2022/05/16 13:05:45;;;;;;;6.70;3.10;;;29.50;1.00;;;;;;5102484;28;20427;-58
2022/05/16 13:08:38;;;;;;;4.90;3.53;;;29.80;1.00;;;;;;5111381;28;21017;-59
2022/05/16 13:11:36;;;;;;;6.90;3.87;;;29.90;1.00;;;;;;5096530;28;20588;-58
2022/05/16 13:14:38;;;;;;;3.37;3.00;;;29.70;1.00;;;;;;5111878;28;20459;-57
2022/05/16 13:17:16;;;;;;;4.57;3.30;;;29.40;1.00;;;;;;5096980;28;20458;-58
2022/05/16 13:19:44;;;;;;;5.37;2.90;;;29.50;1.00;;;;;;5113867;28;20761;-57
2022/05/16 13:22:17;;;;;;;5.40;3.13;;;29.40;1.00;;;;;;5113709;28;20464;-58
2022/05/16 13:24:43;;;;;;;5.97;3.27;;;29.60;1.00;;;;;;5113747;28;20431;-57
2022/05/16 13:30:03;;;;;;;6.40;3.20;;;29.80;1.00;;;;;;5114167;28;20763;-57
2022/05/16 13:32:30;;;;;;;5.87;3.30;;;30.00;1.00;;;;;;5108087;28;21026;-57
2022/05/16 13:34:59;;;;;;;5.30;3.80;;;29.90;1.00;;;;;;5111703;28;20471;-57
2022/05/16 13:37:30;;;;;;;5.70;3.53;;;29.70;1.00;;;;;;5113722;28;20414;-58
2022/05/16 13:40:06;;;;;;;4.70;3.13;;;30.00;1.00;;;;;;5111922;28;20447;-57
2022/05/16 13:42:35;;;;;;;5.07;3.40;;;30.40;1.00;;;;;;5102698;28;20903;-58
2022/05/16 13:45:01;;;;;;;4.90;3.20;;;30.50;1.00;;;;;;5093356;28;20475;-57
2022/05/16 13:47:29;;;;;;;6.27;2.90;;;30.60;1.00;;;;;;5099298;28;20838;-59
2022/05/16 13:49:56;;;;;;;8.60;3.53;;;30.60;1.00;;;;;;5113389;28;20534;-58
2022/05/16 13:52:30;;;;;;;4.50;3.90;;;30.60;1.00;;;;;;5113601;28;20450;-58
2022/05/16 13:54:58;;;;;;;5.23;3.53;;;30.60;1.00;;;;;;5112143;28;20467;-58
2022/05/16 13:57:24;;;;;;;8.20;4.07;;;30.70;1.00;;;;;;5113564;28;20435;-58
2022/05/16 14:00:13;;;;;;;4.63;3.30;;;30.90;1.00;;;;;;5094506;28;20426;-57
2022/05/16 14:02:40;;;;;;;4.93;3.80;;;30.80;1.00;;;;;;5099538;28;20447;-57